sensor_id;sensor_type;location;lat;lon;timestamp;P1;durP1;ratioP1;P2;durP2;ratioP2
61739;SDS011;47645;45.288;12.038;2022-07-29T00:02:18;7.7;;;6.6;;
61739;SDS011;47645;45.288;12.038;2022-07-29T00:12:20;6.4;;;4.4;;
61739;SDS011;47645;45.288;12.038;2022-07-29T00:22:21;6.6;;;4.9;;
61739;SDS011;47645;45.288;12.038;2022-07-29T00:32:22;6.7;;;5.5;;
61739;SDS011;47645;45.288;12.038;2022-07-29T00:42:24;9.9;;;7.2;;
61739;SDS011;47645;45.288;12.038;2022-07-29T00:52:25;8.8;;;5.4;;
61739;SDS011;47645;45.288;12.038;2022-07-29T01:02:27;6.9;;;4.2;;
61739;SDS011;47645;45.288;12.038;2022-07-29T01:12:28;8.5;;;3.8;;
61739;SDS011;47645;45.288;12.038;2022-07-29T01:22:36;5.3;;;3.2;;
61739;SDS011;47645;45.288;12.038;2022-07-29T01:32:32;4.3;;;2.8;;
61739;SDS011;47645;45.288;12.038;2022-07-29T01:42:34;3.8;;;3.1;;
61739;SDS011;47645;45.288;12.038;2022-07-29T01:52:34;3.3;;;2.7;;
61739;SDS011;47645;45.288;12.038;2022-07-29T02:02:35;3.2;;;2.4;;
61739;SDS011;47645;45.288;12.038;2022-07-29T02:12:36;3.8;;;2.8;;
61739;SDS011;47645;45.288;12.038;2022-07-29T02:22:38;5.2;;;3.1;;
61739;SDS011;47645;45.288;12.038;2022-07-29T02:32:39;6.0;;;3.6;;
61739;SDS011;47645;45.288;12.038;2022-07-29T02:42:41;4.1;;;2.4;;
61739;SDS011;47645;45.288;12.038;2022-07-29T02:52:42;5.7;;;2.7;;
61739;SDS011;47645;45.288;12.038;2022-07-29T03:02:43;5.3;;;2.2;;
61739;SDS011;47645;45.288;12.038;2022-07-29T03:12:44;3.2;;;2.3;;
61739;SDS011;47645;45.288;12.038;2022-07-29T03:22:47;4.4;;;1.9;;
61739;SDS011;47645;45.288;12.038;2022-07-29T03:32:46;3.4;;;1.7;;
61739;SDS011;47645;45.288;12.038;2022-07-29T03:42:47;4.1;;;1.9;;
61739;SDS011;47645;45.288;12.038;2022-07-29T03:52:49;3.4;;;1.9;;
61739;SDS011;47645;45.288;12.038;2022-07-29T04:02:51;7.3;;;2.5;;
61739;SDS011;47645;45.288;12.038;2022-07-29T04:12:52;2.7;;;1.8;;
61739;SDS011;47645;45.288;12.038;2022-07-29T04:22:53;2.7;;;1.9;;
61739;SDS011;47645;45.288;12.038;2022-07-29T04:32:54;3.4;;;2.0;;
61739;SDS011;47645;45.288;12.038;2022-07-29T04:42:55;3.1;;;2.1;;
61739;SDS011;47645;45.288;12.038;2022-07-29T04:52:56;5.1;;;2.3;;
61739;SDS011;47645;45.288;12.038;2022-07-29T05:02:58;2.6;;;1.6;;
61739;SDS011;47645;45.288;12.038;2022-07-29T05:12:59;5.4;;;2.0;;
61739;SDS011;47645;45.288;12.038;2022-07-29T05:23:00;3.6;;;1.7;;
61739;SDS011;47645;45.288;12.038;2022-07-29T05:33:01;4.5;;;2.1;;
61739;SDS011;47645;45.288;12.038;2022-07-29T05:43:03;3.7;;;1.9;;
61739;SDS011;47645;45.288;12.038;2022-07-29T05:53:04;3.3;;;1.9;;
61739;SDS011;47645;45.288;12.038;2022-07-29T06:03:05;4.4;;;1.9;;
61739;SDS011;47645;45.288;12.038;2022-07-29T06:13:07;4.7;;;2.1;;
61739;SDS011;47645;45.288;12.038;2022-07-29T06:23:08;5.1;;;2.1;;
61739;SDS011;47645;45.288;12.038;2022-07-29T06:33:09;5.1;;;2.4;;
61739;SDS011;47645;45.288;12.038;2022-07-29T06:43:10;4.9;;;2.1;;
61739;SDS011;47645;45.288;12.038;2022-07-29T06:53:12;4.3;;;2.7;;
61739;SDS011;47645;45.288;12.038;2022-07-29T07:03:13;5.6;;;2.5;;
61739;SDS011;47645;45.288;12.038;2022-07-29T07:13:14;3.5;;;2.2;;
61739;SDS011;47645;45.288;12.038;2022-07-29T07:23:16;5.9;;;2.5;;
61739;SDS011;47645;45.288;12.038;2022-07-29T07:33:17;5.3;;;2.4;;
61739;SDS011;47645;45.288;12.038;2022-07-29T07:43:18;5.1;;;3.0;;
61739;SDS011;47645;45.288;12.038;2022-07-29T07:53:19;6.3;;;2.3;;
61739;SDS011;47645;45.288;12.038;2022-07-29T08:03:21;5.6;;;2.6;;
61739;SDS011;47645;45.288;12.038;2022-07-29T08:13:22;5.2;;;3.2;;
61739;SDS011;47645;45.288;12.038;2022-07-29T08:23:23;8.8;;;3.4;;
61739;SDS011;47645;45.288;12.038;2022-07-29T08:33:25;4.7;;;2.8;;
61739;SDS011;47645;45.288;12.038;2022-07-29T08:43:26;5.7;;;3.0;;
61739;SDS011;47645;45.288;12.038;2022-07-29T08:53:28;7.4;;;3.0;;
61739;SDS011;47645;45.288;12.038;2022-07-29T09:03:30;4.6;;;3.1;;
61739;SDS011;47645;45.288;12.038;2022-07-29T09:13:31;5.7;;;2.7;;
61739;SDS011;47645;45.288;12.038;2022-07-29T09:23:32;6.8;;;2.9;;
61739;SDS011;47645;45.288;12.038;2022-07-29T09:33:34;3.7;;;2.5;;
61739;SDS011;47645;45.288;12.038;2022-07-29T09:43:35;3.6;;;2.3;;
61739;SDS011;47645;45.288;12.038;2022-07-29T09:53:37;3.3;;;2.4;;
61739;SDS011;47645;45.288;12.038;2022-07-29T10:03:49;4.8;;;2.3;;
61739;SDS011;47645;45.288;12.038;2022-07-29T10:13:41;5.1;;;2.5;;
61739;SDS011;47645;45.288;12.038;2022-07-29T10:23:42;4.3;;;2.5;;
61739;SDS011;47645;45.288;12.038;2022-07-29T10:33:47;3.7;;;2.0;;
61739;SDS011;47645;45.288;12.038;2022-07-29T10:43:46;3.3;;;2.0;;
61739;SDS011;47645;45.288;12.038;2022-07-29T10:53:48;3.9;;;2.2;;
61739;SDS011;47645;45.288;12.038;2022-07-29T11:03:52;3.6;;;2.1;;
61739;SDS011;47645;45.288;12.038;2022-07-29T11:13:52;3.9;;;2.1;;
61739;SDS011;47645;45.288;12.038;2022-07-29T11:24:02;4.2;;;2.1;;
61739;SDS011;47645;45.288;12.038;2022-07-29T11:33:55;4.5;;;1.8;;
61739;SDS011;47645;45.288;12.038;2022-07-29T11:43:58;4.3;;;2.0;;
61739;SDS011;47645;45.288;12.038;2022-07-29T11:53:59;4.0;;;1.8;;
61739;SDS011;47645;45.288;12.038;2022-07-29T12:04:02;4.4;;;2.0;;
61739;SDS011;47645;45.288;12.038;2022-07-29T12:14:04;3.7;;;1.9;;
61739;SDS011;47645;45.288;12.038;2022-07-29T12:24:06;3.0;;;1.9;;
61739;SDS011;47645;45.288;12.038;2022-07-29T12:34:08;3.2;;;2.0;;
61739;SDS011;47645;45.288;12.038;2022-07-29T12:44:11;3.1;;;2.1;;
61739;SDS011;47645;45.288;12.038;2022-07-29T12:54:14;5.2;;;2.0;;
61739;SDS011;47645;45.288;12.038;2022-07-29T13:04:24;2.2;;;1.7;;
61739;SDS011;47645;45.288;12.038;2022-07-29T13:14:29;3.4;;;2.0;;
61739;SDS011;47645;45.288;12.038;2022-07-29T13:24:20;4.2;;;2.2;;
61739;SDS011;47645;45.288;12.038;2022-07-29T13:34:24;3.8;;;1.8;;
61739;SDS011;47645;45.288;12.038;2022-07-29T13:44:24;2.9;;;1.8;;
61739;SDS011;47645;45.288;12.038;2022-07-29T13:54:26;3.4;;;2.0;;
61739;SDS011;47645;45.288;12.038;2022-07-29T14:04:29;3.7;;;2.2;;
61739;SDS011;47645;45.288;12.038;2022-07-29T14:14:32;2.9;;;1.9;;
61739;SDS011;47645;45.288;12.038;2022-07-29T14:24:33;2.7;;;1.9;;
61739;SDS011;47645;45.288;12.038;2022-07-29T14:34:36;3.2;;;2.1;;
61739;SDS011;47645;45.288;12.038;2022-07-29T14:44:37;4.0;;;2.2;;
61739;SDS011;47645;45.288;12.038;2022-07-29T14:54:39;4.0;;;2.1;;
61739;SDS011;47645;45.288;12.038;2022-07-29T15:04:41;2.8;;;1.9;;
61739;SDS011;47645;45.288;12.038;2022-07-29T15:14:43;3.5;;;2.2;;
61739;SDS011;47645;45.288;12.038;2022-07-29T15:24:45;3.9;;;2.3;;
61739;SDS011;47645;45.288;12.038;2022-07-29T15:34:47;4.4;;;2.2;;
61739;SDS011;47645;45.288;12.038;2022-07-29T15:44:48;3.9;;;2.2;;
61739;SDS011;47645;45.288;12.038;2022-07-29T15:54:50;3.0;;;2.2;;
61739;SDS011;47645;45.288;12.038;2022-07-29T16:04:52;6.9;;;2.8;;
61739;SDS011;47645;45.288;12.038;2022-07-29T16:14:54;4.2;;;2.4;;
61739;SDS011;47645;45.288;12.038;2022-07-29T16:24:56;4.1;;;2.8;;
61739;SDS011;47645;45.288;12.038;2022-07-29T16:34:58;5.3;;;2.9;;
61739;SDS011;47645;45.288;12.038;2022-07-29T16:45:00;4.5;;;2.8;;
61739;SDS011;47645;45.288;12.038;2022-07-29T16:55:02;4.2;;;2.8;;
61739;SDS011;47645;45.288;12.038;2022-07-29T17:05:04;5.6;;;3.2;;
61739;SDS011;47645;45.288;12.038;2022-07-29T17:10:07;4.7;;;3.2;;
61739;SDS011;47645;45.288;12.038;2022-07-29T17:20:06;5.2;;;4.1;;
61739;SDS011;47645;45.288;12.038;2022-07-29T17:30:08;10.5;;;4.2;;
61739;SDS011;47645;45.288;12.038;2022-07-29T17:40:10;4.7;;;3.2;;
61739;SDS011;47645;45.288;12.038;2022-07-29T17:50:11;9.2;;;4.0;;
61739;SDS011;47645;45.288;12.038;2022-07-29T18:00:13;4.9;;;2.6;;
61739;SDS011;47645;45.288;12.038;2022-07-29T18:10:14;6.8;;;2.9;;
61739;SDS011;47645;45.288;12.038;2022-07-29T18:20:16;4.6;;;2.3;;
61739;SDS011;47645;45.288;12.038;2022-07-29T18:30:18;3.5;;;2.3;;
61739;SDS011;47645;45.288;12.038;2022-07-29T18:40:20;3.9;;;2.2;;
61739;SDS011;47645;45.288;12.038;2022-07-29T18:50:22;4.3;;;2.7;;
61739;SDS011;47645;45.288;12.038;2022-07-29T19:00:23;3.5;;;2.2;;
61739;SDS011;47645;45.288;12.038;2022-07-29T19:10:24;6.0;;;3.2;;
61739;SDS011;47645;45.288;12.038;2022-07-29T19:20:25;8.9;;;4.1;;
61739;SDS011;47645;45.288;12.038;2022-07-29T19:30:26;5.4;;;3.1;;
61739;SDS011;47645;45.288;12.038;2022-07-29T19:40:28;7.2;;;3.3;;
61739;SDS011;47645;45.288;12.038;2022-07-29T19:50:30;5.9;;;3.0;;
61739;SDS011;47645;45.288;12.038;2022-07-29T20:00:31;6.6;;;3.6;;
61739;SDS011;47645;45.288;12.038;2022-07-29T20:10:32;6.0;;;2.7;;
61739;SDS011;47645;45.288;12.038;2022-07-29T20:20:33;6.2;;;3.1;;
61739;SDS011;47645;45.288;12.038;2022-07-29T20:30:35;5.3;;;2.9;;
61739;SDS011;47645;45.288;12.038;2022-07-29T20:40:37;6.3;;;3.1;;
61739;SDS011;47645;45.288;12.038;2022-07-29T20:50:38;6.6;;;3.0;;
61739;SDS011;47645;45.288;12.038;2022-07-29T21:00:40;6.9;;;3.3;;
61739;SDS011;47645;45.288;12.038;2022-07-29T21:10:40;4.7;;;3.1;;
61739;SDS011;47645;45.288;12.038;2022-07-29T21:20:42;5.0;;;3.6;;
61739;SDS011;47645;45.288;12.038;2022-07-29T21:30:43;6.4;;;3.0;;
61739;SDS011;47645;45.288;12.038;2022-07-29T21:40:45;6.0;;;3.1;;
61739;SDS011;47645;45.288;12.038;2022-07-29T21:50:46;3.9;;;2.6;;
61739;SDS011;47645;45.288;12.038;2022-07-29T22:00:48;3.8;;;2.5;;
61739;SDS011;47645;45.288;12.038;2022-07-29T22:10:48;8.2;;;3.2;;
61739;SDS011;47645;45.288;12.038;2022-07-29T22:20:50;4.9;;;1.9;;
61739;SDS011;47645;45.288;12.038;2022-07-29T22:30:51;3.8;;;2.4;;
61739;SDS011;47645;45.288;12.038;2022-07-29T22:40:52;3.0;;;2.2;;
61739;SDS011;47645;45.288;12.038;2022-07-29T22:50:53;3.5;;;2.3;;
61739;SDS011;47645;45.288;12.038;2022-07-29T23:00:55;7.2;;;2.9;;
61739;SDS011;47645;45.288;12.038;2022-07-29T23:10:56;3.9;;;2.3;;
61739;SDS011;47645;45.288;12.038;2022-07-29T23:20:57;8.0;;;3.3;;
61739;SDS011;47645;45.288;12.038;2022-07-29T23:30:59;4.8;;;2.3;;
61739;SDS011;47645;45.288;12.038;2022-07-29T23:41:00;7.8;;;3.1;;
61739;SDS011;47645;45.288;12.038;2022-07-29T23:51:01;6.4;;;3.1;;
